Map

Track Data

SID SEASON NUMBER BASIN SUBBASIN NAME ISO_TIME NATURE LAT LON WMO_WIND WMO_PRES WMO_AGENCY TRACK_TYPE DIST2LAND LANDFALL IFLAG USA_AGENCY USA_ATCF_ID USA_LAT USA_LON USA_RECORD USA_STATUS USA_WIND USA_PRES USA_SSHS USA_R34_NE USA_R34_SE USA_R34_SW USA_R34_NW USA_R50_NE USA_R50_SE USA_R50_SW USA_R50_NW USA_R64_NE USA_R64_SE USA_R64_SW USA_R64_NW USA_POCI USA_ROCI USA_RMW USA_EYE TOKYO_LAT TOKYO_LON TOKYO_GRADE TOKYO_WIND TOKYO_PRES TOKYO_R50_DIR TOKYO_R50_LONG TOKYO_R50_SHORT TOKYO_R30_DIR TOKYO_R30_LONG TOKYO_R30_SHORT TOKYO_LAND CMA_LAT CMA_LON CMA_CAT CMA_WIND CMA_PRES HKO_LAT HKO_LON HKO_CAT HKO_WIND HKO_PRES NEWDELHI_LAT NEWDELHI_LON NEWDELHI_GRADE NEWDELHI_WIND NEWDELHI_PRES NEWDELHI_CI NEWDELHI_DP NEWDELHI_POCI REUNION_LAT REUNION_LON REUNION_TYPE REUNION_WIND REUNION_PRES REUNION_TNUM REUNION_CI REUNION_RMW REUNION_R34_NE REUNION_R34_SE REUNION_R34_SW REUNION_R34_NW REUNION_R50_NE REUNION_R50_SE REUNION_R50_SW REUNION_R50_NW REUNION_R64_NE REUNION_R64_SE REUNION_R64_SW REUNION_R64_NW BOM_LAT BOM_LON BOM_TYPE BOM_WIND BOM_PRES BOM_TNUM BOM_CI BOM_RMW BOM_R34_NE BOM_R34_SE BOM_R34_SW BOM_R34_NW BOM_R50_NE BOM_R50_SE BOM_R50_SW BOM_R50_NW BOM_R64_NE BOM_R64_SE BOM_R64_SW BOM_R64_NW BOM_ROCI BOM_POCI BOM_EYE BOM_POS_METHOD BOM_PRES_METHOD NADI_LAT NADI_LON NADI_CAT NADI_WIND NADI_PRES WELLINGTON_LAT WELLINGTON_LON WELLINGTON_WIND WELLINGTON_PRES DS824_LAT DS824_LON DS824_STAGE DS824_WIND DS824_PRES TD9636_LAT TD9636_LON TD9636_STAGE TD9636_WIND TD9636_PRES TD9635_LAT TD9635_LON TD9635_WIND TD9635_PRES TD9635_ROCI NEUMANN_LAT NEUMANN_LON NEUMANN_CLASS NEUMANN_WIND NEUMANN_PRES MLC_LAT MLC_LON MLC_CLASS MLC_WIND MLC_PRES USA_GUST BOM_GUST BOM_GUST_PER REUNION_GUST REUNION_GUST_PER USA_SEAHGT USA_SEARAD_NE USA_SEARAD_SE USA_SEARAD_SW USA_SEARAD_NW STORM_SPEED STORM_DIR
1915212N27284 1915 23 NA NA NOT_NAMED 1915-07-31 06:00:00 TS 27.4000 -76.5000 35 hurdat_atl main 297 275 O_____________ hurdat_atl AL011915 27.4000 -76.5000 TS 35 0 9 275
1915212N27284 1915 23 NA NA NOT_NAMED 1915-07-31 09:00:00 TS 27.4404 -77.0075 main 275 259 P_____________ AL011915 27.4404 -77.0075 TS 37 0 9 276
1915212N27284 1915 23 NA NA NOT_NAMED 1915-07-31 12:00:00 TS 27.5000 -77.5000 40 hurdat_atl main 259 225 O_____________ hurdat_atl AL011915 27.5000 -77.5000 TS 40 0 9 280
1915212N27284 1915 23 NA NA NOT_NAMED 1915-07-31 15:00:00 TS 27.5923 -77.9650 main 216 185 P_____________ AL011915 27.5923 -77.9650 TS 45 0 8 284
1915212N27284 1915 23 NA NA NOT_NAMED 1915-07-31 18:00:00 TS 27.7000 -78.4000 50 hurdat_atl main 185 153 O_____________ hurdat_atl AL011915 27.7000 -78.4000 TS 50 0 8 285
1915212N27284 1915 23 NA NA NOT_NAMED 1915-07-31 21:00:00 TS 27.7999 -78.8225 main 153 121 P_____________ AL011915 27.7999 -78.8225 TS 52 0 7 286
1915212N27284 1915 23 NA NA NOT_NAMED 1915-08-01 00:00:00 TS 27.9000 -79.2000 55 hurdat_atl main 121 98 O_____________ hurdat_atl AL011915 27.9000 -79.2000 TS 55 0 6 287
1915212N27284 1915 23 NA NA NOT_NAMED 1915-08-01 03:00:00 TS 27.9924 -79.5226 main 98 72 P_____________ AL011915 27.9924 -79.5226 TS 57 0 6 291
1915212N27284 1915 23 NA NA NOT_NAMED 1915-08-01 06:00:00 TS 28.1000 -79.8000 60 hurdat_atl main 72 59 O_____________ hurdat_atl AL011915 28.1000 -79.8000 TS 60 0 5 298
1915212N27284 1915 23 NA NA NOT_NAMED 1915-08-01 09:00:00 TS 28.2424 -80.0575 main 50 22 P_____________ AL011915 28.2424 -80.0575 TS 62 0 5 304
1915212N27284 1915 23 NA NA NOT_NAMED 1915-08-01 12:00:00 TS 28.4000 -80.3000 65 hurdat_atl main 22 0 O_____________ hurdat_atl AL011915 28.4000 -80.3000 HU 65 1 5 304
1915212N27284 1915 23 NA NA NOT_NAMED 1915-08-01 15:00:00 TS 28.5425 -80.5576 main 0 0 P_____________ AL011915 28.5425 -80.5576 HU 65 1 5 304
1915212N27284 1915 23 NA NA NOT_NAMED 1915-08-01 18:00:00 TS 28.7000 -80.8000 65 990 hurdat_atl main 0 0 O_____________ hurdat_atl AL011915 28.7000 -80.8000 L HU 65 990 1 5 310
1915212N27284 1915 23 NA NA NOT_NAMED 1915-08-01 21:00:00 TS 28.8850 -81.0151 main 0 0 P_____________ AL011915 28.8850 -81.0151 HU 57 0 5 319
1915212N27284 1915 23 NA NA NOT_NAMED 1915-08-02 00:00:00 TS 29.1000 -81.2000 50 hurdat_atl main 0 0 O_____________ hurdat_atl AL011915 29.1000 -81.2000 TS 50 0 5 327
1915212N27284 1915 23 NA NA NOT_NAMED 1915-08-02 03:00:00 TS 29.3350 -81.3576 main 0 0 P_____________ AL011915 29.3350 -81.3576 TS 47 0 6 332
1915212N27284 1915 23 NA NA NOT_NAMED 1915-08-02 06:00:00 TS 29.6000 -81.5000 45 hurdat_atl main 0 0 O_____________ hurdat_atl AL011915 29.6000 -81.5000 TS 45 0 6 335
1915212N27284 1915 23 NA NA NOT_NAMED 1915-08-02 09:00:00 TS 29.8850 -81.6501 main 0 0 P_____________ AL011915 29.8850 -81.6501 TS 42 0 7 337
1915212N27284 1915 23 NA NA NOT_NAMED 1915-08-02 12:00:00 TS 30.2000 -81.8000 40 1003 hurdat_atl main 0 0 O_____________ hurdat_atl AL011915 30.2000 -81.8000 TS 40 1003 0 7 337
1915212N27284 1915 23 NA NA NOT_NAMED 1915-08-02 15:00:00 TS 30.5275 -81.9575 main 0 0 P_____________ AL011915 30.5275 -81.9575 TS 40 0 7 340
1915212N27284 1915 23 NA NA NOT_NAMED 1915-08-02 18:00:00 TS 30.9000 -82.1000 40 hurdat_atl main 0 0 O_____________ hurdat_atl AL011915 30.9000 -82.1000 TS 40 0 8 343
1915212N27284 1915 23 NA NA NOT_NAMED 1915-08-02 21:00:00 TS 31.3200 -82.2372 main 0 0 P_____________ AL011915 31.3200 -82.2372 TS 40 0 9 349
1915212N27284 1915 23 NA NA NOT_NAMED 1915-08-03 00:00:00 TS 31.8000 -82.3000 40 hurdat_atl main 0 0 O_____________ hurdat_atl AL011915 31.8000 -82.3000 TS 40 0 10 0
1915212N27284 1915 23 NA NA NOT_NAMED 1915-08-03 03:00:00 TS 32.3349 -82.2525 main 0 0 P_____________ AL011915 32.3349 -82.2525 TS 40 0 11 9
1915212N27284 1915 23 NA NA NOT_NAMED 1915-08-03 06:00:00 TS 32.9000 -82.1000 40 hurdat_atl main 0 0 O_____________ hurdat_atl AL011915 32.9000 -82.1000 TS 40 0 11 16
1915212N27284 1915 23 NA NA NOT_NAMED 1915-08-03 09:00:00 TS 33.4275 -81.8797 main 0 0 P_____________ AL011915 33.4275 -81.8797 TS 37 0 12 21
1915212N27284 1915 23 NA NA NOT_NAMED 1915-08-03 12:00:00 TS 34.0000 -81.6000 35 hurdat_atl main 0 0 O_____________ hurdat_atl AL011915 34.0000 -81.6000 TS 35 0 13 19
1915212N27284 1915 23 NA NA NOT_NAMED 1915-08-03 15:00:00 TS 34.6618 -81.3727 main 0 0 P_____________ AL011915 34.6618 -81.3727 TS 35 0 15 19
1915212N27284 1915 23 NA NA NOT_NAMED 1915-08-03 18:00:00 TS 35.4000 -81.0000 35 hurdat_atl main 0 0 O_____________ hurdat_atl AL011915 35.4000 -81.0000 TS 35 0 17 29
1915212N27284 1915 23 NA NA NOT_NAMED 1915-08-03 21:00:00 TS 36.1776 -80.3397 main 0 0 P_____________ AL011915 36.1776 -80.3397 TS 37 0 20 37
1915212N27284 1915 23 NA NA NOT_NAMED 1915-08-04 00:00:00 TS 37.0000 -79.5000 40 hurdat_atl main 0 0 O_____________ hurdat_atl AL011915 37.0000 -79.5000 TS 40 0 22 39
1915212N27284 1915 23 NA NA NOT_NAMED 1915-08-04 03:00:00 TS 37.8646 -78.6295 main 0 0 P_____________ AL011915 37.8646 -78.6295 TS 40 0 22 40
1915212N27284 1915 23 NA NA NOT_NAMED 1915-08-04 06:00:00 TS 38.7000 -77.7000 40 hurdat_atl main 0 0 O_____________ hurdat_atl AL011915 38.7000 -77.7000 TS 40 0 22 43
1915212N27284 1915 23 NA NA NOT_NAMED 1915-08-04 09:00:00 TS 39.4675 -76.7275 main 0 0 P_____________ AL011915 39.4675 -76.7275 TS 42 0 20 46
1915212N27284 1915 23 NA NA NOT_NAMED 1915-08-04 12:00:00 TS 40.1000 -75.8000 45 hurdat_atl main 0 0 O_____________ hurdat_atl AL011915 40.1000 -75.8000 TS 45 0 17 51
1915212N27284 1915 23 NA NA NOT_NAMED 1915-08-04 15:00:00 TS 40.5517 -74.9950 main 0 0 P_____________ AL011915 40.5517 -74.9950 TS 47 0 14 55
1915212N27284 1915 23 NA NA NOT_NAMED 1915-08-04 18:00:00 ET 40.9000 -74.3000 50 hurdat_atl main 0 0 O_____________ hurdat_atl AL011915 40.9000 -74.3000 EX 50 -4 12 54
1915212N27284 1915 23 NA NA NOT_NAMED 1915-08-04 21:00:00 ET 41.2792 -73.6843 main 0 0 P_____________ AL011915 41.2792 -73.6843 EX 47 -4 11 52
1915212N27284 1915 23 NA NA NOT_NAMED 1915-08-05 00:00:00 ET 41.6000 -73.1000 45 hurdat_atl main 0 0 O_____________ hurdat_atl AL011915 41.6000 -73.1000 EX 45 -4 11 59
1915212N27284 1915 23 NA NA NOT_NAMED 1915-08-05 03:00:00 ET 41.8222 -72.4565 main 0 0 P_____________ AL011915 41.8222 -72.4565 EX 40 -4 10 68
1915212N27284 1915 23 NA NA NOT_NAMED 1915-08-05 06:00:00 ET 42.0000 -71.8000 35 hurdat_atl main 0 0 O_____________ hurdat_atl AL011915 42.0000 -71.8000 EX 35 -4 10 69
1915212N27284 1915 23 NA NA NOT_NAMED 1915-08-05 09:00:00 ET 42.1932 -71.1487 main 0 0 P_____________ AL011915 42.1932 -71.1487 EX 32 -4 10 67
1915212N27284 1915 23 NA NA NOT_NAMED 1915-08-05 12:00:00 ET 42.4000 -70.5000 30 hurdat_atl main 23 O_____________ hurdat_atl AL011915 42.4000 -70.5000 EX 30 -4 10 67

About IBTrACS Database

This database is a web-friendly format of International Best Track Archive for Climate Stewardship (IBTrACS), a global best track data archive curated by NOAA dating back to 1842.

Updated: 2021-10-21